Time;durP1;ratioP1;P1;durP2;ratioP2;P2;SDS_P1;SDS_P2;PMS_P1;PMS_P2;Temp;Humidity;BMP_temperature;BMP_pressure;BME280_temperature;BME280_humidity;BME280_pressure;Samples;Min_cycle;Max_cycle;Signal;HPM_P1;HPM_P2
2023/08/01 00:00:43;;;;;;;8.25;6.07;;;17.30;99.90;;;;;;4975184;28;20717;-78
2023/08/01 00:03:09;;;;;;;10.60;6.65;;;17.30;99.90;;;;;;4983525;28;20085;-78
2023/08/01 00:05:34;;;;;;;8.93;6.32;;;17.30;99.90;;;;;;4983799;28;20039;-78
2023/08/01 00:08:02;;;;;;;8.18;6.25;;;17.30;99.90;;;;;;4957869;28;20054;-78
2023/08/01 00:10:28;;;;;;;6.93;6.15;;;17.30;99.90;;;;;;4967161;28;20445;-78
2023/08/01 00:12:53;;;;;;;9.18;6.00;;;17.30;99.90;;;;;;4986769;28;20058;-78
2023/08/01 00:15:19;;;;;;;9.85;6.45;;;17.30;99.90;;;;;;4963029;28;20045;-78
2023/08/01 00:17:45;;;;;;;9.90;6.60;;;17.30;99.90;;;;;;4986473;28;20137;-79
2023/08/01 00:20:11;;;;;;;10.40;7.00;;;17.30;99.90;;;;;;4983335;28;20057;-78
2023/08/01 00:22:36;;;;;;;13.20;7.05;;;17.30;99.90;;;;;;4983867;28;20050;-78
2023/08/01 00:25:02;;;;;;;10.15;6.93;;;17.30;99.90;;;;;;4966376;28;20501;-78
2023/08/01 00:27:28;;;;;;;9.02;6.68;;;17.30;99.90;;;;;;4981453;28;20057;-79
2023/08/01 00:29:54;;;;;;;10.93;6.85;;;17.30;99.90;;;;;;4965785;28;20065;-79
2023/08/01 00:32:20;;;;;;;8.75;6.88;;;17.40;99.90;;;;;;4974164;28;20065;-79
2023/08/01 00:34:45;;;;;;;9.38;7.47;;;17.30;99.90;;;;;;4966793;28;20560;-79
2023/08/01 00:37:12;;;;;;;10.15;7.53;;;17.30;99.90;;;;;;4971482;28;20248;-78
2023/08/01 00:39:38;;;;;;;11.50;9.30;;;17.30;99.90;;;;;;4977439;28;20038;-79
2023/08/01 00:42:04;;;;;;;11.23;8.48;;;17.30;99.90;;;;;;4956886;28;20053;-78
2023/08/01 00:44:29;;;;;;;9.98;8.13;;;17.30;99.90;;;;;;4982124;28;20034;-78
2023/08/01 00:46:55;;;;;;;9.98;8.30;;;17.20;99.90;;;;;;4974019;28;20048;-78
2023/08/01 00:49:21;;;;;;;12.18;8.10;;;17.30;99.90;;;;;;4985613;28;20042;-78
2023/08/01 00:51:47;;;;;;;10.98;8.45;;;17.30;99.90;;;;;;4984676;28;20057;-78
2023/08/01 00:54:14;;;;;;;11.07;7.57;;;17.30;99.90;;;;;;4981532;28;20093;-78
2023/08/01 00:56:40;;;;;;;11.07;8.13;;;17.30;99.90;;;;;;4986379;28;20046;-78
2023/08/01 00:59:06;;;;;;;9.88;7.88;;;17.30;99.90;;;;;;4979659;28;20081;-78
2023/08/01 01:01:32;;;;;;;12.55;8.10;;;17.30;99.90;;;;;;4982916;28;20046;-78
2023/08/01 01:03:58;;;;;;;10.18;7.85;;;17.20;99.90;;;;;;4980047;28;20035;-78
2023/08/01 01:06:37;;;;;;;11.07;7.55;;;17.30;99.90;;;;;;4981242;28;20030;-78
2023/08/01 01:09:13;;;;;;;11.50;8.20;;;17.30;99.90;;;;;;4979126;28;20186;-78
2023/08/01 01:11:39;;;;;;;11.85;8.30;;;17.20;99.90;;;;;;4965047;28;20748;-78
2023/08/01 01:14:05;;;;;;;13.70;8.00;;;17.20;99.90;;;;;;4971906;28;20061;-78
2023/08/01 01:16:30;;;;;;;12.20;8.35;;;17.20;99.90;;;;;;4963462;28;20038;-78
2023/08/01 01:18:56;;;;;;;12.27;8.57;;;17.20;99.90;;;;;;4987296;28;20116;-78
2023/08/01 01:21:21;;;;;;;14.13;9.02;;;17.20;99.90;;;;;;4980341;28;20034;-78
2023/08/01 01:23:49;;;;;;;11.18;8.77;;;17.20;99.90;;;;;;4968298;28;20145;-79
2023/08/01 01:26:20;;;;;;;10.30;8.60;;;17.20;99.90;;;;;;4984450;28;20046;-78
2023/08/01 01:28:47;;;;;;;10.32;9.10;;;17.20;99.90;;;;;;4968359;28;20050;-78
2023/08/01 01:31:13;;;;;;;11.55;8.98;;;17.20;99.90;;;;;;4986071;28;20097;-79
2023/08/01 01:33:39;;;;;;;11.65;9.60;;;17.20;99.90;;;;;;4982566;28;20034;-78
2023/08/01 01:36:04;;;;;;;12.20;9.65;;;17.20;99.90;;;;;;4983247;28;20112;-78
2023/08/01 01:38:38;;;;;;;13.73;10.63;;;17.20;99.90;;;;;;4964163;28;20489;-78
2023/08/01 01:41:04;;;;;;;13.65;10.38;;;17.20;99.90;;;;;;4979182;28;20081;-78
2023/08/01 01:43:29;;;;;;;13.13;10.95;;;17.20;99.90;;;;;;4990543;28;20070;-78
2023/08/01 01:45:55;;;;;;;17.42;12.70;;;17.20;99.90;;;;;;4962204;28;20110;-78
2023/08/01 01:48:21;;;;;;;13.25;11.48;;;17.20;99.90;;;;;;4979309;28;20049;-78
2023/08/01 01:50:46;;;;;;;13.18;11.75;;;17.20;99.90;;;;;;4989410;28;20053;-78
2023/08/01 01:53:12;;;;;;;15.13;11.48;;;17.10;99.90;;;;;;4973040;28;20054;-78
2023/08/01 01:55:38;;;;;;;15.27;12.63;;;17.10;99.90;;;;;;4983569;28;20057;-78
2023/08/01 01:58:03;;;;;;;15.07;11.77;;;17.10;99.90;;;;;;4983993;28;20061;-78
2023/08/01 02:00:30;;;;;;;15.23;12.05;;;17.10;99.90;;;;;;4985404;28;20055;-78
2023/08/01 02:02:55;;;;;;;15.25;12.35;;;17.10;99.90;;;;;;4978603;28;20485;-78
2023/08/01 02:05:21;;;;;;;16.25;12.50;;;17.10;99.90;;;;;;4985572;28;20049;-78
2023/08/01 02:07:46;;;;;;;14.82;12.13;;;17.10;99.90;;;;;;4982799;28;20129;-78
2023/08/01 02:10:12;;;;;;;14.50;11.48;;;17.10;99.90;;;;;;4959536;28;20043;-78
2023/08/01 02:12:38;;;;;;;12.85;11.00;;;17.10;99.90;;;;;;4983350;28;20085;-78
2023/08/01 02:15:04;;;;;;;14.25;11.77;;;17.00;99.90;;;;;;4982485;28;20046;-78
2023/08/01 02:17:30;;;;;;;15.52;11.20;;;17.00;99.90;;;;;;4985048;28;20046;-78
2023/08/01 02:19:56;;;;;;;15.95;10.98;;;17.00;99.90;;;;;;4970423;28;20038;-78
2023/08/01 02:22:22;;;;;;;14.00;10.38;;;17.00;99.90;;;;;;4968624;28;20046;-79
2023/08/01 02:24:48;;;;;;;14.23;10.27;;;17.00;99.90;;;;;;4972830;28;20093;-79
2023/08/01 02:27:13;;;;;;;12.98;10.88;;;16.90;99.90;;;;;;4975539;28;20983;-78
2023/08/01 02:29:39;;;;;;;13.25;10.50;;;16.90;99.90;;;;;;4981405;28;20045;-79
2023/08/01 02:32:05;;;;;;;15.30;10.93;;;16.90;99.90;;;;;;4965920;28;20121;-78
2023/08/01 02:34:30;;;;;;;12.52;9.98;;;16.90;99.90;;;;;;4977632;28;20068;-79
2023/08/01 02:36:56;;;;;;;12.27;10.20;;;16.90;99.90;;;;;;4964532;28;20046;-79
2023/08/01 02:39:22;;;;;;;13.35;10.18;;;16.90;99.90;;;;;;4983826;28;20047;-79
2023/08/01 02:41:47;;;;;;;12.13;10.15;;;16.90;99.90;;;;;;4984308;28;20042;-78
2023/08/01 02:44:13;;;;;;;13.02;10.40;;;16.90;99.90;;;;;;4975983;28;20041;-78
2023/08/01 02:46:39;;;;;;;13.88;9.88;;;16.90;99.90;;;;;;4962701;28;20496;-78
2023/08/01 02:49:05;;;;;;;13.30;9.43;;;16.90;99.90;;;;;;4967321;28;20181;-78
2023/08/01 02:51:30;;;;;;;13.40;8.93;;;16.90;99.90;;;;;;4963227;28;20402;-78
2023/08/01 02:53:56;;;;;;;11.35;8.23;;;16.80;99.90;;;;;;4982513;28;20058;-77
2023/08/01 02:56:22;;;;;;;12.32;8.07;;;16.80;99.90;;;;;;4961888;28;20724;-78
2023/08/01 02:58:47;;;;;;;13.35;8.80;;;16.80;99.90;;;;;;4986060;28;20141;-78
2023/08/01 03:01:13;;;;;;;12.15;8.65;;;16.80;99.90;;;;;;4975590;28;20037;-78
2023/08/01 03:03:39;;;;;;;14.57;8.43;;;16.80;99.90;;;;;;4970537;28;20053;-78
2023/08/01 03:06:05;;;;;;;12.43;8.85;;;16.80;99.90;;;;;;4972801;28;20041;-79
2023/08/01 03:08:30;;;;;;;12.05;9.07;;;16.80;99.90;;;;;;4983074;28;20073;-79
2023/08/01 03:10:57;;;;;;;12.35;8.82;;;16.80;99.90;;;;;;4964906;28;20077;-78
2023/08/01 03:13:23;;;;;;;10.55;8.15;;;16.70;99.90;;;;;;4968445;28;20061;-78
2023/08/01 03:15:49;;;;;;;12.63;7.68;;;16.70;99.90;;;;;;4987392;28;20030;-78
2023/08/01 03:18:14;;;;;;;13.95;8.45;;;16.70;99.90;;;;;;4974081;28;20404;-79
2023/08/01 03:20:40;;;;;;;14.35;7.85;;;16.70;99.90;;;;;;4971829;28;20073;-79
2023/08/01 03:23:06;;;;;;;10.18;7.10;;;16.60;99.90;;;;;;4983964;28;20528;-79
2023/08/01 03:25:32;;;;;;;12.10;7.45;;;16.60;99.90;;;;;;4965357;28;20054;-79
2023/08/01 03:27:58;;;;;;;11.27;6.82;;;16.60;99.90;;;;;;4982043;28;20402;-79
2023/08/01 03:30:24;;;;;;;14.15;6.85;;;16.70;99.90;;;;;;4987319;28;20649;-79
2023/08/01 03:32:49;;;;;;;14.80;6.93;;;16.60;99.90;;;;;;4986839;28;20152;-79
2023/08/01 03:35:15;;;;;;;13.88;6.63;;;16.70;99.90;;;;;;4986600;28;20042;-79
2023/08/01 03:37:41;;;;;;;11.77;6.20;;;16.60;99.90;;;;;;4984709;28;20042;-79
2023/08/01 03:40:10;;;;;;;9.70;6.53;;;16.60;99.90;;;;;;4983920;28;20034;-79
2023/08/01 03:42:40;;;;;;;10.45;6.40;;;16.60;99.90;;;;;;4985535;28;20054;-79
2023/08/01 03:45:06;;;;;;;11.23;6.38;;;16.60;99.90;;;;;;4984938;28;21002;-79
2023/08/01 03:47:32;;;;;;;12.00;6.37;;;16.60;99.90;;;;;;4989959;28;20077;-79
2023/08/01 03:49:58;;;;;;;10.55;6.40;;;16.60;99.90;;;;;;4982901;28;20380;-79
2023/08/01 03:52:24;;;;;;;15.20;5.97;;;16.60;99.90;;;;;;4985874;28;20053;-79
2023/08/01 03:54:53;;;;;;;10.70;5.80;;;16.60;99.90;;;;;;4979691;28;20503;-79
2023/08/01 03:57:19;;;;;;;12.90;7.15;;;16.50;99.90;;;;;;4960692;28;20053;-79
2023/08/01 03:59:46;;;;;;;11.07;6.32;;;16.60;99.90;;;;;;4961595;28;20055;-79
2023/08/01 04:02:11;;;;;;;13.55;6.75;;;16.50;99.90;;;;;;4959958;28;20426;-79
2023/08/01 04:04:37;;;;;;;12.98;6.15;;;16.50;99.90;;;;;;4977745;28;20041;-74
2023/08/01 04:07:03;;;;;;;12.00;5.95;;;16.50;99.90;;;;;;4972029;28;20058;-79
2023/08/01 04:09:29;;;;;;;17.23;6.43;;;16.50;99.90;;;;;;4967193;28;20074;-79
2023/08/01 04:11:54;;;;;;;12.25;6.30;;;16.50;99.90;;;;;;4972532;28;20392;-79
2023/08/01 04:14:20;;;;;;;13.48;6.28;;;16.50;99.90;;;;;;4964705;28;20094;-79
2023/08/01 04:16:47;;;;;;;13.88;6.32;;;16.50;99.90;;;;;;4985473;28;20047;-79
2023/08/01 04:19:13;;;;;;;11.93;6.70;;;16.50;99.90;;;;;;4984035;28;20595;-79
2023/08/01 04:21:38;;;;;;;13.75;6.30;;;16.40;99.90;;;;;;4983449;28;20031;-79
2023/08/01 04:24:04;;;;;;;12.43;6.05;;;16.40;99.90;;;;;;4960790;28;20421;-79
2023/08/01 04:26:30;;;;;;;14.20;6.00;;;16.40;99.90;;;;;;4982667;28;20050;-79
2023/08/01 04:28:55;;;;;;;11.93;6.00;;;16.40;99.90;;;;;;4972952;28;20642;-79
2023/08/01 04:31:21;;;;;;;11.75;5.47;;;16.30;99.90;;;;;;4958328;28;20058;-79
2023/08/01 04:33:47;;;;;;;11.30;5.22;;;16.30;99.90;;;;;;4974548;28;20047;-79
2023/08/01 04:36:12;;;;;;;15.45;6.25;;;16.30;99.90;;;;;;4979441;28;20057;-79
2023/08/01 04:38:38;;;;;;;12.90;5.80;;;16.30;99.90;;;;;;4973468;28;20053;-79
2023/08/01 04:41:04;;;;;;;10.60;5.80;;;16.30;99.90;;;;;;4980542;28;20425;-79
2023/08/01 04:43:30;;;;;;;8.57;4.72;;;16.30;99.90;;;;;;4975187;28;20034;-79
2023/08/01 04:45:55;;;;;;;6.40;3.60;;;16.20;99.90;;;;;;4978340;28;20050;-79
2023/08/01 04:48:21;;;;;;;5.97;3.30;;;16.20;99.90;;;;;;4990048;28;20038;-79
2023/08/01 04:50:47;;;;;;;7.72;4.07;;;16.20;99.90;;;;;;4984833;28;20112;-79
2023/08/01 04:53:12;;;;;;;8.35;3.75;;;16.10;99.90;;;;;;4983276;28;20046;-76
2023/08/01 04:55:39;;;;;;;7.28;3.97;;;16.10;99.90;;;;;;4983707;28;20137;-81
2023/08/01 04:58:05;;;;;;;5.90;3.30;;;16.10;99.90;;;;;;4985202;28;20460;-81
2023/08/01 05:00:31;;;;;;;6.13;3.35;;;16.10;99.90;;;;;;4988446;28;20137;-82
2023/08/01 05:02:56;;;;;;;6.05;3.50;;;16.10;99.90;;;;;;4981703;28;20074;-81
2023/08/01 05:05:22;;;;;;;6.43;2.97;;;16.10;99.90;;;;;;4969675;28;20237;-80
2023/08/01 05:07:48;;;;;;;5.47;2.97;;;16.10;99.90;;;;;;4985953;28;20080;-80
2023/08/01 05:10:14;;;;;;;5.00;2.83;;;16.10;99.90;;;;;;4980860;28;20053;-80
2023/08/01 05:12:39;;;;;;;5.38;2.88;;;16.10;99.90;;;;;;4987380;28;20042;-81
2023/08/01 05:15:06;;;;;;;5.43;2.88;;;16.10;99.90;;;;;;4985227;28;20051;-78
2023/08/01 05:17:31;;;;;;;5.60;2.80;;;16.10;99.90;;;;;;4986761;28;20042;-79
2023/08/01 05:19:57;;;;;;;6.88;3.17;;;16.10;99.90;;;;;;4984908;28;20501;-80
2023/08/01 05:22:23;;;;;;;5.03;2.78;;;16.10;99.90;;;;;;4986664;28;20045;-81
2023/08/01 05:24:49;;;;;;;4.75;2.50;;;16.10;99.90;;;;;;4982361;28;20421;-81
2023/08/01 05:27:14;;;;;;;3.45;2.30;;;16.20;99.90;;;;;;4982292;28;20046;-81
2023/08/01 05:29:40;;;;;;;5.18;2.10;;;16.20;99.90;;;;;;4984787;28;20117;-80
2023/08/01 05:32:06;;;;;;;4.72;2.50;;;16.20;99.90;;;;;;4979336;28;20073;-80
2023/08/01 05:34:33;;;;;;;7.38;2.88;;;16.30;99.90;;;;;;4985251;28;20070;-81
2023/08/01 05:36:58;;;;;;;9.15;2.63;;;16.30;99.90;;;;;;4988943;28;20042;-80
2023/08/01 05:39:24;;;;;;;5.82;3.17;;;16.40;99.90;;;;;;4972323;28;20109;-81
2023/08/01 05:41:50;;;;;;;6.65;3.20;;;16.40;99.90;;;;;;4987173;28;20462;-80
2023/08/01 05:44:16;;;;;;;6.20;3.22;;;16.50;99.90;;;;;;4984491;28;20049;-81
2023/08/01 05:46:42;;;;;;;5.85;3.17;;;16.50;99.90;;;;;;4983774;28;20145;-78
2023/08/01 05:49:07;;;;;;;7.45;3.92;;;16.50;99.90;;;;;;4983241;28;20425;-81
2023/08/01 05:51:33;;;;;;;7.15;3.25;;;16.50;99.90;;;;;;4979931;28;20070;-82
2023/08/01 05:53:58;;;;;;;6.63;3.38;;;16.50;99.90;;;;;;4980685;28;20046;-80
2023/08/01 05:56:24;;;;;;;7.55;3.20;;;16.50;99.90;;;;;;4966140;28;20046;-84
2023/08/01 05:58:50;;;;;;;6.07;3.40;;;16.50;99.90;;;;;;4962509;28;20066;-85
2023/08/01 06:01:16;;;;;;;6.32;3.08;;;16.50;99.90;;;;;;4967774;28;20042;-85
2023/08/01 06:03:42;;;;;;;6.97;3.60;;;16.50;99.90;;;;;;4984640;28;20089;-85
2023/08/01 06:06:08;;;;;;;8.50;3.60;;;16.50;99.90;;;;;;4974360;28;20062;-85
2023/08/01 06:08:34;;;;;;;7.30;3.55;;;16.40;99.90;;;;;;4988961;28;20096;-84
2023/08/01 06:10:59;;;;;;;5.75;3.10;;;16.40;99.90;;;;;;4978423;28;20892;-86
2023/08/01 06:13:25;;;;;;;7.88;3.55;;;16.40;99.90;;;;;;4977579;28;20053;-83
2023/08/01 06:15:51;;;;;;;5.55;3.03;;;16.30;99.90;;;;;;4959385;28;20543;-84
2023/08/01 06:18:16;;;;;;;4.80;2.67;;;16.30;99.90;;;;;;4961851;28;20042;-84
2023/08/01 06:20:42;;;;;;;5.75;2.72;;;16.40;99.90;;;;;;4967550;28;20042;-84
2023/08/01 06:23:08;;;;;;;8.07;3.35;;;16.40;99.90;;;;;;4982621;28;20054;-84
2023/08/01 06:25:34;;;;;;;6.50;2.80;;;16.40;99.90;;;;;;4970249;28;20392;-82
2023/08/01 06:28:00;;;;;;;5.93;2.90;;;16.40;99.90;;;;;;4968818;28;20409;-81
2023/08/01 06:30:26;;;;;;;6.47;3.10;;;16.40;99.90;;;;;;4985069;28;20042;-81
2023/08/01 06:32:51;;;;;;;5.43;2.70;;;16.40;99.90;;;;;;4979450;28;20401;-81
2023/08/01 06:35:17;;;;;;;5.13;2.88;;;16.40;99.90;;;;;;4970621;28;20549;-81
2023/08/01 06:37:43;;;;;;;5.30;2.95;;;16.30;99.90;;;;;;4968584;28;20069;-81
2023/08/01 06:40:09;;;;;;;8.15;3.13;;;16.30;99.90;;;;;;4977905;28;20129;-81
2023/08/01 06:42:35;;;;;;;7.40;3.47;;;16.30;99.90;;;;;;4973187;28;20070;-81
2023/08/01 06:45:00;;;;;;;6.95;3.47;;;16.30;99.90;;;;;;4966504;28;20069;-81
2023/08/01 06:47:26;;;;;;;6.65;3.60;;;16.30;99.90;;;;;;4985195;28;20429;-81
2023/08/01 06:49:52;;;;;;;7.40;4.03;;;16.40;99.90;;;;;;4976061;28;20053;-81
2023/08/01 06:52:18;;;;;;;6.82;4.50;;;16.40;99.90;;;;;;4971159;28;20085;-83
2023/08/01 06:54:43;;;;;;;7.78;5.05;;;16.50;99.90;;;;;;4977766;28;20043;-84
2023/08/01 06:57:09;;;;;;;6.90;4.95;;;16.50;99.90;;;;;;4984086;28;20035;-85
2023/08/01 06:59:35;;;;;;;6.43;4.60;;;16.60;99.90;;;;;;4984167;28;20490;-85
2023/08/01 07:02:01;;;;;;;8.45;5.35;;;16.70;99.90;;;;;;4981872;28;20481;-85
2023/08/01 07:04:27;;;;;;;7.40;4.05;;;16.70;99.90;;;;;;4982207;28;20050;-85
2023/08/01 07:06:52;;;;;;;7.03;3.53;;;16.80;99.90;;;;;;4987311;28;20084;-84
2023/08/01 07:09:18;;;;;;;5.07;3.03;;;16.90;99.90;;;;;;4981303;28;20035;-84
2023/08/01 07:11:44;;;;;;;5.38;2.38;;;16.90;99.90;;;;;;4981719;28;20058;-84
2023/08/01 07:14:10;;;;;;;6.03;2.95;;;16.90;99.90;;;;;;4979354;28;20042;-84
2023/08/01 07:16:35;;;;;;;6.07;2.90;;;16.80;99.90;;;;;;4984765;28;20492;-84
2023/08/01 07:19:01;;;;;;;5.10;2.80;;;16.90;99.90;;;;;;4986183;28;20046;-80
2023/08/01 07:21:28;;;;;;;5.97;3.00;;;16.90;99.90;;;;;;4962422;28;20054;-82
2023/08/01 07:23:54;;;;;;;;;;;16.90;99.90;;;;;;4981742;28;20481;-76
2023/08/01 07:26:20;;;;;;;6.07;3.25;;;17.00;99.90;;;;;;4975353;28;19926;-82
2023/08/01 07:28:45;;;;;;;7.35;2.95;;;17.00;99.90;;;;;;4961127;28;20108;-78
2023/08/01 07:31:11;;;;;;;6.45;3.20;;;17.10;99.90;;;;;;4983691;28;20071;-74
2023/08/01 07:33:37;;;;;;;6.63;3.13;;;17.20;99.90;;;;;;4988697;28;20137;-79
2023/08/01 07:36:03;;;;;;;5.93;3.47;;;17.20;99.90;;;;;;4980747;28;20073;-77
2023/08/01 07:38:31;;;;;;;6.07;3.00;;;17.30;99.90;;;;;;4965815;28;20088;-75
2023/08/01 07:40:57;;;;;;;5.82;3.00;;;17.40;99.90;;;;;;4963395;28;20061;-80
2023/08/01 07:43:23;;;;;;;4.40;2.90;;;17.40;99.90;;;;;;4984823;28;20050;-80
2023/08/01 07:45:50;;;;;;;5.82;2.50;;;17.40;99.90;;;;;;4986005;28;20042;-77
2023/08/01 07:48:16;;;;;;;7.97;3.00;;;17.50;99.90;;;;;;4974081;28;20046;-80
2023/08/01 07:50:42;;;;;;;6.28;2.20;;;17.50;99.90;;;;;;4976637;28;20165;-72
2023/08/01 07:53:07;;;;;;;5.60;2.30;;;17.60;99.90;;;;;;4975796;28;20129;-79
2023/08/01 07:55:34;;;;;;;4.78;1.98;;;17.50;99.90;;;;;;4957802;28;20054;-78
2023/08/01 07:58:00;;;;;;;6.05;2.42;;;17.60;99.90;;;;;;4951394;28;20117;-85
2023/08/01 08:00:26;;;;;;;6.75;2.53;;;17.50;99.90;;;;;;4965841;28;20050;-81
2023/08/01 08:02:53;;;;;;;5.00;2.40;;;17.50;99.90;;;;;;4984862;28;20050;-84
2023/08/01 08:05:19;;;;;;;5.72;2.38;;;17.50;99.90;;;;;;4984700;28;20102;-83
2023/08/01 08:07:45;;;;;;;4.75;2.50;;;17.60;99.90;;;;;;4975086;28;20070;-79
2023/08/01 08:10:11;;;;;;;5.43;2.60;;;17.50;99.90;;;;;;4988682;28;20078;-83
2023/08/01 08:12:37;;;;;;;6.47;2.50;;;17.50;99.90;;;;;;4970358;28;20054;-84
2023/08/01 08:15:03;;;;;;;4.40;2.20;;;17.60;99.90;;;;;;4976970;28;20042;-73
2023/08/01 08:17:29;;;;;;;5.07;2.35;;;17.50;99.90;;;;;;4984280;28;20143;-79
2023/08/01 08:19:55;;;;;;;5.10;2.45;;;17.60;99.90;;;;;;4972221;28;20042;-81
2023/08/01 08:22:20;;;;;;;5.82;2.35;;;17.60;99.90;;;;;;4984714;28;20162;-82
2023/08/01 08:24:46;;;;;;;5.10;2.22;;;17.50;99.90;;;;;;4973320;28;20062;-77
2023/08/01 08:27:13;;;;;;;4.82;2.20;;;17.50;99.90;;;;;;4981909;28;20046;-79
2023/08/01 08:29:38;;;;;;;5.60;2.20;;;17.50;99.90;;;;;;4979594;28;20679;-78
2023/08/01 08:32:05;;;;;;;5.15;2.20;;;17.50;99.90;;;;;;4970034;28;20046;-79
2023/08/01 08:34:30;;;;;;;5.28;2.08;;;17.40;99.90;;;;;;4978171;28;20042;-78
2023/08/01 08:36:56;;;;;;;4.57;2.30;;;17.40;99.90;;;;;;4983421;28;20444;-74
2023/08/01 08:39:21;;;;;;;4.32;1.80;;;17.40;99.90;;;;;;4973078;28;20666;-83
2023/08/01 08:41:49;;;;;;;3.53;1.83;;;17.40;99.90;;;;;;4974574;28;20061;-82
2023/08/01 08:44:16;;;;;;;;;;;17.40;99.90;;;;;;4978023;28;20050;-83
2023/08/01 08:46:44;;;;;;;4.43;2.10;;;17.40;99.90;;;;;;4960715;28;20024;-82
2023/08/01 08:49:10;;;;;;;;;;;17.40;99.90;;;;;;4963172;28;20053;-82
2023/08/01 08:51:40;;;;;;;6.88;2.30;;;17.40;99.90;;;;;;4979343;28;20128;-82
2023/08/01 08:54:07;;;;;;;6.45;2.50;;;17.40;99.90;;;;;;4976962;28;20042;-82
2023/08/01 08:56:34;;;;;;;5.00;2.60;;;17.40;99.90;;;;;;4985535;28;20078;-81
2023/08/01 08:59:00;;;;;;;;;;;17.30;99.90;;;;;;4984590;28;20065;-85
2023/08/01 09:01:26;;;;;;;5.07;2.25;;;17.30;99.90;;;;;;4975641;28;19926;-82
2023/08/01 09:03:53;;;;;;;4.63;2.00;;;17.30;99.90;;;;;;4980611;28;20046;-77
2023/08/01 09:06:28;;;;;;;5.23;2.30;;;17.30;99.90;;;;;;4974462;28;20061;-81
2023/08/01 09:09:04;;;;;;;4.78;2.10;;;17.30;99.90;;;;;;4971039;28;20057;-77
2023/08/01 09:11:41;;;;;;;7.33;2.70;;;17.40;99.90;;;;;;4972328;28;20039;-81
2023/08/01 09:14:06;;;;;;;4.57;2.50;;;17.50;99.90;;;;;;4978694;28;20130;-79
2023/08/01 09:16:33;;;;;;;7.60;2.72;;;17.50;99.90;;;;;;4988914;28;20112;-83
2023/08/01 09:18:59;;;;;;;6.35;2.40;;;17.70;99.90;;;;;;4975710;28;20046;-80
2023/08/01 09:21:25;;;;;;;5.47;2.47;;;17.70;99.90;;;;;;4958303;28;20047;-81
2023/08/01 09:23:51;;;;;;;4.75;2.58;;;17.70;99.90;;;;;;4984064;28;20049;-79
2023/08/01 09:26:20;;;;;;;7.38;2.95;;;17.80;99.90;;;;;;4970346;28;20497;-81
2023/08/01 09:29:12;;;;;;;7.82;3.50;;;17.80;99.90;;;;;;4972032;28;20071;-83
2023/08/01 09:31:40;;;;;;;6.40;2.85;;;17.70;99.90;;;;;;4963063;28;20059;-82
2023/08/01 09:34:17;;;;;;;6.65;3.25;;;17.70;99.90;;;;;;4983627;28;20457;-80
2023/08/01 09:36:43;;;;;;;8.38;2.70;;;17.60;99.90;;;;;;4989490;28;20386;-81
2023/08/01 09:39:08;;;;;;;6.20;2.90;;;17.50;99.90;;;;;;4983413;28;20035;-81
2023/08/01 09:41:34;;;;;;;8.38;3.22;;;17.50;99.90;;;;;;4988424;28;20046;-81
2023/08/01 09:44:00;;;;;;;6.40;3.05;;;17.40;99.90;;;;;;4977181;28;20038;-80
2023/08/01 09:46:26;;;;;;;6.53;2.95;;;17.40;99.90;;;;;;4960071;28;20097;-80
2023/08/01 09:48:51;;;;;;;7.65;3.00;;;17.30;99.90;;;;;;4976151;28;20058;-84
2023/08/01 09:51:20;;;;;;;7.15;2.97;;;17.20;99.90;;;;;;4983624;28;20046;-83
2023/08/01 09:53:52;;;;;;;9.38;3.00;;;17.20;99.90;;;;;;4964834;28;20161;-81
2023/08/01 09:56:28;;;;;;;6.97;2.65;;;17.10;99.90;;;;;;4983510;28;20047;-83
2023/08/01 09:58:55;;;;;;;8.45;3.40;;;17.20;99.90;;;;;;4970803;28;20059;-82
2023/08/01 10:01:23;;;;;;;9.10;3.25;;;17.20;99.90;;;;;;4974812;28;20049;-80
2023/08/01 10:03:50;;;;;;;7.30;2.67;;;17.20;99.90;;;;;;4982601;28;20671;-78
2023/08/01 10:06:21;;;;;;;8.00;2.92;;;17.10;99.90;;;;;;4965758;28;20100;-80
2023/08/01 10:08:49;;;;;;;8.45;2.92;;;17.10;99.90;;;;;;4982385;28;20397;-78
2023/08/01 10:11:16;;;;;;;5.97;2.70;;;17.10;99.90;;;;;;4981594;28;20124;-78
2023/08/01 10:13:43;;;;;;;9.85;3.00;;;17.10;99.90;;;;;;4989373;28;20374;-77
2023/08/01 10:16:10;;;;;;;6.78;2.92;;;17.00;99.90;;;;;;4974976;28;20502;-77
2023/08/01 10:18:37;;;;;;;7.40;3.30;;;17.00;99.90;;;;;;4959166;28;20046;-81
2023/08/01 10:21:05;;;;;;;6.90;3.28;;;17.00;99.90;;;;;;4987628;28;20054;-79
2023/08/01 10:23:33;;;;;;;9.27;3.20;;;17.00;99.90;;;;;;4984810;28;20061;-77
2023/08/01 10:26:04;;;;;;;5.93;2.75;;;17.10;99.90;;;;;;4972124;28;20056;-80
2023/08/01 10:28:39;;;;;;;8.15;3.35;;;17.20;99.90;;;;;;4965712;28;20058;-74
2023/08/01 10:31:13;;;;;;;7.72;3.40;;;17.30;99.90;;;;;;4964508;28;20077;-78
2023/08/01 10:33:41;;;;;;;8.02;3.50;;;17.40;99.90;;;;;;4961707;28;20062;-80
2023/08/01 10:36:17;;;;;;;13.15;4.18;;;17.40;99.90;;;;;;4980317;28;20535;-79
2023/08/01 10:38:53;;;;;;;8.57;4.13;;;17.50;99.90;;;;;;4971003;28;20054;-80
2023/08/01 10:41:31;;;;;;;8.90;3.58;;;17.60;99.90;;;;;;4966934;28;20050;-78
2023/08/01 10:44:13;;;;;;;8.35;3.55;;;17.70;99.90;;;;;;4974261;28;20077;-78
2023/08/01 10:46:46;;;;;;;9.98;3.60;;;17.70;99.90;;;;;;4972661;28;20054;-77
2023/08/01 10:49:12;;;;;;;9.50;3.90;;;17.80;99.90;;;;;;4980468;28;20401;-78
2023/08/01 10:51:37;;;;;;;9.27;3.40;;;17.80;99.90;;;;;;4962096;28;20082;-76
2023/08/01 10:54:03;;;;;;;8.63;3.40;;;18.00;99.90;;;;;;4979984;28;20185;-76
2023/08/01 10:56:31;;;;;;;5.75;2.65;;;18.20;99.90;;;;;;4970555;28;20446;-78
2023/08/01 10:58:57;;;;;;;7.53;2.72;;;18.30;99.90;;;;;;4970571;28;20059;-75
2023/08/01 11:01:23;;;;;;;6.30;2.60;;;18.20;99.90;;;;;;4970909;28;20034;-76
2023/08/01 11:03:50;;;;;;;4.80;2.00;;;18.20;99.90;;;;;;4981298;28;20042;-80
2023/08/01 11:06:16;;;;;;;7.60;2.83;;;18.30;99.90;;;;;;4978967;28;20034;-75
2023/08/01 11:08:43;;;;;;;6.38;2.30;;;18.40;99.90;;;;;;4964101;28;20426;-75
2023/08/01 11:11:13;;;;;;;6.85;2.42;;;18.50;99.90;;;;;;4974516;28;20043;-77
2023/08/01 11:13:38;;;;;;;6.80;2.58;;;18.60;99.90;;;;;;4978385;28;20118;-76
2023/08/01 11:16:06;;;;;;;5.80;1.83;;;18.70;99.90;;;;;;4980041;28;20133;-78
2023/08/01 11:18:44;;;;;;;;;;;18.80;99.90;;;;;;4972874;28;20062;-83
2023/08/01 11:21:10;;;;;;;6.43;2.00;;;18.80;99.90;;;;;;4977601;28;20357;-76
2023/08/01 11:23:36;;;;;;;6.78;2.28;;;18.80;99.90;;;;;;4984508;28;20393;-76
2023/08/01 11:26:10;;;;;;;5.20;1.65;;;18.70;99.90;;;;;;4984613;28;20046;-76
2023/08/01 11:28:36;;;;;;;6.35;1.83;;;18.70;99.90;;;;;;4962558;28;20057;-75
2023/08/01 11:31:11;;;;;;;4.43;1.80;;;18.60;99.90;;;;;;4969675;28;20614;-75
2023/08/01 11:33:37;;;;;;;4.85;2.03;;;18.40;99.90;;;;;;4981364;28;20582;-75
2023/08/01 11:36:03;;;;;;;4.35;1.85;;;18.30;99.90;;;;;;4969065;28;20249;-75
2023/08/01 11:38:33;;;;;;;3.78;1.70;;;18.20;99.90;;;;;;4966024;28;20042;-75
2023/08/01 11:41:03;;;;;;;4.75;1.80;;;18.10;99.90;;;;;;4970332;28;20478;-77
2023/08/01 11:43:42;;;;;;;4.30;1.88;;;18.00;99.90;;;;;;4977006;28;20141;-78
2023/08/01 11:46:08;;;;;;;5.43;1.98;;;17.90;99.90;;;;;;4977525;28;20055;-77
2023/08/01 11:48:35;;;;;;;6.88;2.20;;;17.80;99.90;;;;;;4982214;28;20042;-78
2023/08/01 11:51:02;;;;;;;5.78;2.35;;;17.80;99.90;;;;;;4974902;28;20043;-76
2023/08/01 11:53:29;;;;;;;6.00;1.98;;;17.80;99.90;;;;;;4985956;28;20046;-79
2023/08/01 11:55:56;;;;;;;6.57;2.45;;;17.80;99.90;;;;;;4956965;28;20046;-78
2023/08/01 11:58:29;;;;;;;6.65;1.88;;;18.00;99.90;;;;;;4981402;28;20545;-76
2023/08/01 12:01:22;;;;;;;8.57;1.75;;;18.20;99.90;;;;;;4985059;28;20055;-77
2023/08/01 12:03:53;;;;;;;5.25;1.63;;;18.50;99.90;;;;;;4977749;28;20517;-77
2023/08/01 12:06:23;;;;;;;5.28;1.65;;;18.70;99.90;;;;;;4964662;28;20493;-83
2023/08/01 12:08:51;;;;;;;5.25;1.70;;;18.90;99.90;;;;;;4986919;28;20092;-80
2023/08/01 12:11:29;;;;;;;6.85;1.95;;;19.00;99.90;;;;;;4971635;28;20046;-84
2023/08/01 12:14:09;;;;;;;6.03;1.90;;;18.90;99.90;;;;;;4982674;28;20081;-78
2023/08/01 12:16:36;;;;;;;5.78;1.80;;;18.90;99.90;;;;;;4988064;28;20046;-82
2023/08/01 12:19:02;;;;;;;7.20;2.03;;;18.90;99.90;;;;;;4974511;28;20158;-83
2023/08/01 12:21:33;;;;;;;5.35;1.85;;;19.00;99.90;;;;;;4980296;28;20039;-83
2023/08/01 12:23:58;;;;;;;6.93;2.78;;;19.20;99.90;;;;;;4974876;28;20494;-83
2023/08/01 12:26:24;;;;;;;8.48;1.95;;;19.30;99.90;;;;;;4980720;28;20049;-84
2023/08/01 12:28:50;;;;;;;5.70;1.90;;;19.50;99.90;;;;;;4980297;28;20149;-83
2023/08/01 12:31:21;;;;;;;5.40;1.80;;;19.60;99.90;;;;;;4972451;28;20449;-84
2023/08/01 12:33:47;;;;;;;8.82;2.30;;;19.60;99.90;;;;;;4973378;28;20113;-84
2023/08/01 12:36:14;;;;;;;5.90;1.95;;;19.50;99.90;;;;;;4973815;28;20674;-84
2023/08/01 12:38:39;;;;;;;6.50;1.92;;;19.30;99.90;;;;;;4978433;28;20757;-83
2023/08/01 12:41:06;;;;;;;7.20;2.08;;;19.10;99.90;;;;;;4966550;28;20046;-83